Time;durP1;ratioP1;P1;durP2;ratioP2;P2;SDS_P1;SDS_P2;PMS_P1;PMS_P2;Temp;Humidity;BMP_temperature;BMP_pressure;BME280_temperature;BME280_humidity;BME280_pressure;Samples;Min_cycle;Max_cycle;Signal;HPM_P1;HPM_P2
2021/07/31 00:01:33;;;;;;;10.50;9.50;;;;;;;;;;5095127;28;20417;-71
2021/07/31 00:04:00;;;;;;;10.30;9.40;;;;;;;;;;5094908;28;20514;-70
2021/07/31 00:06:26;;;;;;;10.33;9.33;;;;;;;;;;5095207;28;20438;-71
2021/07/31 00:08:52;;;;;;;10.20;9.30;;;;;;;;;;5094654;28;21103;-72
2021/07/31 00:11:18;;;;;;;10.40;9.40;;;;;;;;;;5075674;28;20421;-76
2021/07/31 00:13:44;;;;;;;10.23;9.30;;;;;;;;;;5083957;28;20436;-70
2021/07/31 00:16:10;;;;;;;10.97;9.97;;;;;;;;;;5077035;28;20423;-71
2021/07/31 00:18:36;;;;;;;10.30;9.30;;;;;;;;;;5085192;28;20405;-71
2021/07/31 00:21:02;;;;;;;9.97;9.00;;;;;;;;;;5092304;28;20420;-71
2021/07/31 00:23:28;;;;;;;9.90;8.90;;;;;;;;;;5074593;28;20434;-72
2021/07/31 00:25:54;;;;;;;10.20;9.30;;;;;;;;;;5074338;28;20560;-71
2021/07/31 00:28:21;;;;;;;11.33;8.80;;;;;;;;;;5072681;28;20500;-70
2021/07/31 00:30:47;;;;;;;9.40;8.50;;;;;;;;;;5074241;28;20414;-70
2021/07/31 00:33:13;;;;;;;7.87;7.27;;;;;;;;;;5074253;28;20430;-71
2021/07/31 00:35:39;;;;;;;6.80;6.30;;;;;;;;;;5074360;28;20438;-73
2021/07/31 00:38:05;;;;;;;6.73;6.13;;;;;;;;;;5073712;28;20415;-73
2021/07/31 00:40:31;;;;;;;6.83;6.23;;;;;;;;;;5073849;28;20418;-72
2021/07/31 00:42:57;;;;;;;6.70;6.10;;;;;;;;;;5073551;28;20431;-71
2021/07/31 00:45:24;;;;;;;6.40;5.80;;;;;;;;;;5082383;28;20419;-71
2021/07/31 00:47:50;;;;;;;6.60;5.63;;;;;;;;;;5067396;28;20546;-73
2021/07/31 00:50:16;;;;;;;5.73;5.10;;;;;;;;;;5072109;28;20493;-73
2021/07/31 00:52:43;;;;;;;6.13;5.50;;;;;;;;;;5074030;28;20434;-71
2021/07/31 00:55:13;;;;;;;5.87;5.33;;;;;;;;;;5073713;28;20446;-72
2021/07/31 00:57:40;;;;;;;6.40;5.80;;;;;;;;;;5071132;28;20914;-70
2021/07/31 01:00:07;;;;;;;6.83;5.67;;;;;;;;;;5073499;28;20408;-73
2021/07/31 01:02:33;;;;;;;6.40;5.80;;;;;;;;;;5073204;28;20496;-72
2021/07/31 01:04:59;;;;;;;6.83;5.67;;;;;;;;;;5071767;28;20441;-70
2021/07/31 01:07:25;;;;;;;7.57;5.63;;;;;;;;;;5075932;28;20413;-69
2021/07/31 01:09:51;;;;;;;8.23;5.23;;;;;;;;;;5075327;28;20500;-71
2021/07/31 01:12:17;;;;;;;6.90;5.53;;;;;;;;;;5072097;28;20411;-72
2021/07/31 01:14:44;;;;;;;8.13;6.57;;;;;;;;;;5072500;28;20772;-73
2021/07/31 01:17:12;;;;;;;8.70;7.23;;;;;;;;;;5060506;28;20403;-71
2021/07/31 01:19:38;;;;;;;8.83;7.00;;;;;;;;;;5084736;28;20414;-71
2021/07/31 01:22:04;;;;;;;6.90;6.30;;;;;;;;;;5067842;28;20477;-72
2021/07/31 01:24:30;;;;;;;8.47;7.67;;;;;;;;;;5071802;28;20422;-70
2021/07/31 01:26:56;;;;;;;8.27;7.33;;;;;;;;;;5072159;28;20438;-71
2021/07/31 01:29:22;;;;;;;9.30;7.40;;;;;;;;;;5072432;28;20497;-71
2021/07/31 01:31:48;;;;;;;7.63;6.93;;;;;;;;;;5072420;28;20810;-73
2021/07/31 01:34:15;;;;;;;10.83;9.83;;;;;;;;;;5072459;28;20791;-72
2021/07/31 01:36:41;;;;;;;11.47;10.37;;;;;;;;;;5071850;28;20439;-72
2021/07/31 01:39:07;;;;;;;9.40;8.50;;;;;;;;;;5072921;28;20418;-70
2021/07/31 01:41:33;;;;;;;11.97;10.80;;;;;;;;;;5072485;28;20410;-70
2021/07/31 01:43:59;;;;;;;11.13;9.90;;;;;;;;;;5072519;28;20434;-73
2021/07/31 01:46:25;;;;;;;10.80;9.70;;;;;;;;;;5072152;28;20411;-71
2021/07/31 01:48:51;;;;;;;10.50;9.50;;;;;;;;;;5071838;28;20981;-70
2021/07/31 01:51:18;;;;;;;9.40;8.17;;;;;;;;;;5072561;28;20406;-70
2021/07/31 01:53:44;;;;;;;9.03;8.13;;;;;;;;;;5070991;28;20745;-71
2021/07/31 01:56:10;;;;;;;9.00;8.10;;;;;;;;;;5072184;28;20407;-72
2021/07/31 01:58:36;;;;;;;9.23;8.10;;;;;;;;;;5071941;28;20759;-70
2021/07/31 02:01:02;;;;;;;7.00;6.40;;;;;;;;;;5072059;28;20799;-71
2021/07/31 02:03:28;;;;;;;6.40;5.90;;;;;;;;;;5072512;28;20765;-71
2021/07/31 02:05:55;;;;;;;6.67;5.70;;;;;;;;;;5036286;28;1050451;-71
2021/07/31 02:08:20;;;;;;;6.10;5.07;;;;;;;;;;5072564;28;20238;-72
2021/07/31 02:10:46;;;;;;;5.27;4.83;;;;;;;;;;5072613;28;20485;-70
2021/07/31 02:13:13;;;;;;;5.60;5.20;;;;;;;;;;5078770;28;20520;-71
2021/07/31 02:15:40;;;;;;;5.80;5.00;;;;;;;;;;5079945;28;20422;-73
2021/07/31 02:18:06;;;;;;;5.57;5.07;;;;;;;;;;5072583;28;20417;-70
2021/07/31 02:20:32;;;;;;;5.60;4.60;;;;;;;;;;5072928;28;20442;-72
2021/07/31 02:22:58;;;;;;;5.00;4.33;;;;;;;;;;5066977;28;20452;-72
2021/07/31 02:25:24;;;;;;;6.87;4.53;;;;;;;;;;5074138;28;20430;-73
2021/07/31 02:27:50;;;;;;;4.50;4.10;;;;;;;;;;5072332;28;20511;-70
2021/07/31 02:30:16;;;;;;;5.60;4.60;;;;;;;;;;5072797;28;20406;-72
2021/07/31 02:32:43;;;;;;;4.27;3.87;;;;;;;;;;5072613;28;20470;-73
2021/07/31 02:35:10;;;;;;;4.80;4.30;;;;;;;;;;5072539;28;20418;-70
2021/07/31 02:37:36;;;;;;;4.20;3.80;;;;;;;;;;5072299;28;20414;-70
2021/07/31 02:40:02;;;;;;;4.40;3.77;;;;;;;;;;5072833;28;20424;-70
2021/07/31 02:42:28;;;;;;;5.90;4.30;;;;;;;;;;5072525;28;20426;-73
2021/07/31 02:44:54;;;;;;;4.00;3.60;;;;;;;;;;5072763;28;20414;-69
2021/07/31 02:47:20;;;;;;;5.63;3.10;;;;;;;;;;5078659;28;20787;-71
2021/07/31 02:49:46;;;;;;;5.77;3.40;;;;;;;;;;5068522;28;20972;-73
2021/07/31 02:52:12;;;;;;;3.40;3.10;;;;;;;;;;5072515;28;20756;-70
2021/07/31 02:54:38;;;;;;;3.60;2.93;;;;;;;;;;5072171;28;20460;-72
2021/07/31 02:57:04;;;;;;;4.77;3.50;;;;;;;;;;5071491;28;20415;-71
2021/07/31 02:59:31;;;;;;;3.70;3.30;;;;;;;;;;5072355;28;20420;-70
2021/07/31 03:01:57;;;;;;;3.50;3.10;;;;;;;;;;5072409;28;20425;-71
2021/07/31 03:04:23;;;;;;;5.37;4.07;;;;;;;;;;5086959;28;20452;-72
2021/07/31 03:06:50;;;;;;;5.83;3.20;;;;;;;;;;5095610;28;20720;-71
2021/07/31 03:09:16;;;;;;;4.40;3.40;;;;;;;;;;5094645;28;20457;-72
2021/07/31 03:11:42;;;;;;;4.33;3.90;;;;;;;;;;5075774;28;20417;-71
2021/07/31 03:14:08;;;;;;;3.57;3.27;;;;;;;;;;5075536;28;20489;-72
2021/07/31 03:16:34;;;;;;;4.77;4.37;;;;;;;;;;5062646;28;20414;-73
2021/07/31 03:19:00;;;;;;;4.97;4.17;;;;;;;;;;5075858;28;20795;-73
2021/07/31 03:21:26;;;;;;;3.83;3.53;;;;;;;;;;5070300;28;20506;-72
2021/07/31 03:23:52;;;;;;;4.40;3.33;;;;;;;;;;5069126;28;20466;-72
2021/07/31 03:26:18;;;;;;;3.80;3.30;;;;;;;;;;5075801;28;20872;-72
2021/07/31 03:28:44;;;;;;;3.83;3.43;;;;;;;;;;5075251;28;20499;-70
2021/07/31 03:31:17;;;;;;;6.87;4.10;;;;;;;;;;5074823;28;20517;-70
2021/07/31 03:33:43;;;;;;;4.67;4.27;;;;;;;;;;5073480;28;20536;-69
2021/07/31 03:36:09;;;;;;;4.83;4.00;;;;;;;;;;5075341;28;20433;-70
2021/07/31 03:38:35;;;;;;;3.47;3.17;;;;;;;;;;5075035;28;20449;-70
2021/07/31 03:41:01;;;;;;;6.03;3.83;;;;;;;;;;5061159;28;20515;-72
2021/07/31 03:43:27;;;;;;;4.17;3.77;;;;;;;;;;5083920;28;20506;-72
2021/07/31 03:45:53;;;;;;;4.93;3.83;;;;;;;;;;5079380;28;20422;-71
2021/07/31 03:48:19;;;;;;;4.90;3.93;;;;;;;;;;5064509;28;20486;-72
2021/07/31 03:50:45;;;;;;;4.37;3.97;;;;;;;;;;5074059;28;20858;-72
2021/07/31 03:53:11;;;;;;;4.00;3.67;;;;;;;;;;5076249;28;20435;-71
2021/07/31 03:55:37;;;;;;;5.63;3.43;;;;;;;;;;5088452;28;20445;-71
2021/07/31 03:58:04;;;;;;;4.13;3.37;;;;;;;;;;5077863;28;20425;-71
2021/07/31 04:00:30;;;;;;;8.37;3.73;;;;;;;;;;5094938;28;20429;-73
2021/07/31 04:02:56;;;;;;;3.90;3.47;;;;;;;;;;5077937;28;20438;-70
2021/07/31 04:05:22;;;;;;;4.20;3.20;;;;;;;;;;5074744;28;20957;-73
2021/07/31 04:07:48;;;;;;;4.30;3.37;;;;;;;;;;5074333;28;20468;-72
2021/07/31 04:10:14;;;;;;;4.23;3.60;;;;;;;;;;5074673;28;20425;-72
2021/07/31 04:12:40;;;;;;;4.13;3.73;;;;;;;;;;5074508;28;20490;-73
2021/07/31 04:15:09;;;;;;;4.63;3.83;;;;;;;;;;5074446;28;20421;-72
2021/07/31 04:17:35;;;;;;;4.20;3.80;;;;;;;;;;5073106;28;20889;-72
2021/07/31 04:20:01;;;;;;;4.97;3.20;;;;;;;;;;5074511;28;20759;-71
2021/07/31 04:22:27;;;;;;;3.83;3.20;;;;;;;;;;5074335;28;20438;-70
2021/07/31 04:24:53;;;;;;;5.70;3.93;;;;;;;;;;5073252;28;20419;-71
2021/07/31 04:27:20;;;;;;;3.93;3.23;;;;;;;;;;5073907;28;20407;-73
2021/07/31 04:29:46;;;;;;;4.17;3.37;;;;;;;;;;5074799;28;20413;-75
2021/07/31 04:32:12;;;;;;;3.57;3.27;;;;;;;;;;5075350;28;20470;-71
2021/07/31 04:34:38;;;;;;;3.90;3.50;;;;;;;;;;5094767;28;20800;-70
2021/07/31 04:37:04;;;;;;;6.80;3.50;;;;;;;;;;5093864;28;20416;-73
2021/07/31 04:39:31;;;;;;;7.80;4.27;;;;;;;;;;5094834;28;20413;-73
2021/07/31 04:41:57;;;;;;;4.97;3.73;;;;;;;;;;5094023;28;20447;-71
2021/07/31 04:44:23;;;;;;;5.67;3.73;;;;;;;;;;5094505;28;20432;-73
2021/07/31 04:46:49;;;;;;;4.60;3.37;;;;;;;;;;5093966;28;20866;-71
2021/07/31 04:49:18;;;;;;;4.33;3.63;;;;;;;;;;5094231;28;20493;-70
2021/07/31 04:51:44;;;;;;;4.17;3.20;;;;;;;;;;5094083;28;20440;-73
2021/07/31 04:54:11;;;;;;;4.67;3.40;;;;;;;;;;5093958;28;20446;-70
2021/07/31 04:56:37;;;;;;;4.50;3.33;;;;;;;;;;5075490;28;20421;-72
2021/07/31 04:59:03;;;;;;;3.80;3.40;;;;;;;;;;5073978;28;20426;-73
2021/07/31 05:01:29;;;;;;;4.50;3.23;;;;;;;;;;5074185;28;20425;-72
2021/07/31 05:03:56;;;;;;;4.00;3.67;;;;;;;;;;5073445;28;20833;-73
2021/07/31 05:06:22;;;;;;;8.57;3.93;;;;;;;;;;5073616;28;20421;-72
2021/07/31 05:08:48;;;;;;;3.63;2.80;;;;;;;;;;5073280;28;20474;-70
2021/07/31 05:11:14;;;;;;;5.30;3.80;;;;;;;;;;5073841;28;20410;-71
2021/07/31 05:13:40;;;;;;;3.33;3.03;;;;;;;;;;5072274;28;20442;-70
2021/07/31 05:16:06;;;;;;;3.43;3.03;;;;;;;;;;5073913;28;20475;-72
2021/07/31 05:18:32;;;;;;;3.77;2.93;;;;;;;;;;5073193;28;20414;-74
2021/07/31 05:20:59;;;;;;;3.43;3.13;;;;;;;;;;5073568;28;20429;-72
2021/07/31 05:23:25;;;;;;;6.93;3.23;;;;;;;;;;5073359;28;20867;-72
2021/07/31 05:25:51;;;;;;;3.97;2.90;;;;;;;;;;5073551;28;20410;-72
2021/07/31 05:28:19;;;;;;;4.60;3.50;;;;;;;;;;5072678;28;20468;-72
2021/07/31 05:30:45;;;;;;;3.30;3.00;;;;;;;;;;5073418;28;20502;-73
2021/07/31 05:33:11;;;;;;;3.70;3.23;;;;;;;;;;5073473;28;20958;-71
2021/07/31 05:35:37;;;;;;;5.97;3.97;;;;;;;;;;5073289;28;20920;-71
2021/07/31 05:38:03;;;;;;;5.10;3.17;;;;;;;;;;5072999;28;20414;-74
2021/07/31 05:40:29;;;;;;;4.53;3.00;;;;;;;;;;5072930;28;20467;-72
2021/07/31 05:42:55;;;;;;;2.93;2.63;;;;;;;;;;5073421;28;20446;-72
2021/07/31 05:45:21;;;;;;;3.30;3.00;;;;;;;;;;5073456;28;20803;-70
2021/07/31 05:47:47;;;;;;;4.63;3.00;;;;;;;;;;5072645;28;20452;-70
2021/07/31 05:50:13;;;;;;;6.60;3.40;;;;;;;;;;5073051;28;20922;-71
2021/07/31 05:52:40;;;;;;;3.57;2.70;;;;;;;;;;5073072;28;20469;-74
2021/07/31 05:55:09;;;;;;;3.13;2.70;;;;;;;;;;5073055;28;20418;-75
2021/07/31 05:57:35;;;;;;;3.93;3.00;;;;;;;;;;5067275;28;20403;-72
2021/07/31 06:00:01;;;;;;;2.90;2.57;;;;;;;;;;5073104;28;20755;-74
2021/07/31 06:02:27;;;;;;;3.23;2.93;;;;;;;;;;5073238;28;20433;-70
2021/07/31 06:04:53;;;;;;;3.17;2.77;;;;;;;;;;5073108;28;20428;-70
2021/07/31 06:07:19;;;;;;;3.03;2.73;;;;;;;;;;5072608;28;20407;-69
2021/07/31 06:09:56;;;;;;;3.43;2.90;;;;;;;;;;5072727;28;20491;-71
2021/07/31 06:12:22;;;;;;;4.47;3.07;;;;;;;;;;5074855;28;20531;-69
2021/07/31 06:14:48;;;;;;;6.23;3.17;;;;;;;;;;5093030;28;20420;-71
2021/07/31 06:17:14;;;;;;;4.67;2.83;;;;;;;;;;5093044;28;20500;-72
2021/07/31 06:19:41;;;;;;;5.17;3.10;;;;;;;;;;5093156;28;20417;-71
2021/07/31 06:22:07;;;;;;;4.03;3.20;;;;;;;;;;5092881;28;20422;-73
2021/07/31 06:24:33;;;;;;;5.20;2.90;;;;;;;;;;5092958;28;20755;-70
2021/07/31 06:26:59;;;;;;;5.07;2.70;;;;;;;;;;5092740;28;20418;-73
2021/07/31 06:29:25;;;;;;;4.50;3.27;;;;;;;;;;5080703;28;20465;-69
2021/07/31 06:31:51;;;;;;;4.03;3.07;;;;;;;;;;5072684;28;20411;-71
2021/07/31 06:34:18;;;;;;;5.00;3.10;;;;;;;;;;5072600;28;20946;-70
2021/07/31 06:36:44;;;;;;;6.00;3.30;;;;;;;;;;5072071;28;20445;-74
2021/07/31 06:39:10;;;;;;;6.40;3.10;;;;;;;;;;5072558;28;20415;-71
2021/07/31 06:41:36;;;;;;;3.60;2.77;;;;;;;;;;5075636;28;20763;-71
2021/07/31 06:44:02;;;;;;;4.57;2.97;;;;;;;;;;5076178;28;20430;-72
2021/07/31 06:46:29;;;;;;;3.73;2.70;;;;;;;;;;5076382;28;20721;-71
2021/07/31 06:48:56;;;;;;;3.13;2.63;;;;;;;;;;5076043;28;20796;-72
2021/07/31 06:51:22;;;;;;;3.33;2.73;;;;;;;;;;5076031;28;20417;-71
2021/07/31 06:53:49;;;;;;;6.60;3.03;;;;;;;;;;5085571;28;20470;-72
2021/07/31 06:56:15;;;;;;;5.20;3.13;;;;;;;;;;5081487;28;20410;-70
2021/07/31 06:58:41;;;;;;;5.43;2.97;;;;;;;;;;5076022;28;20465;-72
2021/07/31 07:01:11;;;;;;;3.97;3.17;;;;;;;;;;5076035;28;20453;-73
2021/07/31 07:03:37;;;;;;;5.93;3.93;;;;;;;;;;5086001;28;20433;-72
2021/07/31 07:06:04;;;;;;;4.50;3.00;;;;;;;;;;5096256;28;20437;-70
2021/07/31 07:08:30;;;;;;;4.80;3.20;;;;;;;;;;5095870;28;20537;-69
2021/07/31 07:10:56;;;;;;;5.70;2.93;;;;;;;;;;5096370;28;20406;-72
2021/07/31 07:13:22;;;;;;;5.77;3.30;;;;;;;;;;5096064;28;20921;-74
2021/07/31 07:15:49;;;;;;;3.57;3.07;;;;;;;;;;5096165;28;20405;-73
2021/07/31 07:18:16;;;;;;;3.53;3.20;;;;;;;;;;5095588;28;20441;-71
2021/07/31 07:20:42;;;;;;;3.83;3.10;;;;;;;;;;5096013;28;20420;-70
2021/07/31 07:23:08;;;;;;;5.00;3.60;;;;;;;;;;5095847;28;20455;-72
2021/07/31 07:25:34;;;;;;;4.20;3.33;;;;;;;;;;5095716;28;20503;-74
2021/07/31 07:28:00;;;;;;;4.80;3.33;;;;;;;;;;5095020;28;20461;-74
2021/07/31 07:30:27;;;;;;;5.20;3.20;;;;;;;;;;5075839;28;20406;-74
2021/07/31 07:32:53;;;;;;;4.53;3.73;;;;;;;;;;5075441;28;20429;-73
2021/07/31 07:35:20;;;;;;;3.67;3.07;;;;;;;;;;5075382;28;20505;-70
2021/07/31 07:37:46;;;;;;;3.60;3.10;;;;;;;;;;5075261;28;20914;-74
2021/07/31 07:40:12;;;;;;;5.23;3.83;;;;;;;;;;5075521;28;20414;-73
2021/07/31 07:42:38;;;;;;;3.53;3.23;;;;;;;;;;5075417;28;20485;-72
2021/07/31 07:45:05;;;;;;;4.27;3.50;;;;;;;;;;5093189;28;20877;-72
2021/07/31 07:47:31;;;;;;;5.03;3.37;;;;;;;;;;5094778;28;20453;-72
2021/07/31 07:49:57;;;;;;;7.27;3.77;;;;;;;;;;5095209;28;20475;-72
2021/07/31 07:52:23;;;;;;;5.00;3.90;;;;;;;;;;5095317;28;20429;-72
2021/07/31 07:54:49;;;;;;;4.33;3.10;;;;;;;;;;5077459;28;20411;-69
2021/07/31 07:57:15;;;;;;;7.93;3.67;;;;;;;;;;5074682;28;20414;-70
2021/07/31 07:59:41;;;;;;;4.70;2.90;;;;;;;;;;5074783;28;20417;-73
2021/07/31 08:02:07;;;;;;;6.93;3.60;;;;;;;;;;5074980;28;20441;-72
2021/07/31 08:04:34;;;;;;;3.60;3.30;;;;;;;;;;5092698;28;20441;-74
2021/07/31 08:07:00;;;;;;;4.03;3.53;;;;;;;;;;5094902;28;20847;-73
2021/07/31 08:09:26;;;;;;;6.57;3.63;;;;;;;;;;5095053;28;20492;-72
2021/07/31 08:11:52;;;;;;;3.37;3.07;;;;;;;;;;5094934;28;20886;-72
2021/07/31 08:14:18;;;;;;;5.70;3.60;;;;;;;;;;5077281;28;20464;-73
2021/07/31 08:16:44;;;;;;;3.87;3.57;;;;;;;;;;5074147;28;20418;-71
2021/07/31 08:19:10;;;;;;;4.37;3.80;;;;;;;;;;5074590;28;20422;-71
2021/07/31 08:21:39;;;;;;;4.60;4.20;;;;;;;;;;5074964;28;20435;-73
2021/07/31 08:24:06;;;;;;;4.07;3.47;;;;;;;;;;5074469;28;20955;-74
2021/07/31 08:26:32;;;;;;;4.30;3.90;;;;;;;;;;5074491;28;20522;-72
2021/07/31 08:28:58;;;;;;;5.03;4.57;;;;;;;;;;5074390;28;20461;-74
2021/07/31 08:31:24;;;;;;;5.00;4.50;;;;;;;;;;5074480;28;20501;-70
2021/07/31 08:33:50;;;;;;;5.40;4.10;;;;;;;;;;5074087;28;20431;-71
2021/07/31 08:36:16;;;;;;;8.17;4.53;;;;;;;;;;5074177;28;20406;-71
2021/07/31 08:38:42;;;;;;;5.20;4.10;;;;;;;;;;5092581;28;20413;-73
2021/07/31 08:41:08;;;;;;;5.93;4.20;;;;;;;;;;5094324;28;20445;-72
2021/07/31 08:43:35;;;;;;;4.80;3.90;;;;;;;;;;5094464;28;20963;-73
2021/07/31 08:46:01;;;;;;;4.87;4.47;;;;;;;;;;5094338;28;20500;-75
2021/07/31 08:48:28;;;;;;;4.73;4.10;;;;;;;;;;5093953;28;20502;-71
2021/07/31 08:50:58;;;;;;;6.50;4.40;;;;;;;;;;5094132;28;20463;-71
2021/07/31 08:53:25;;;;;;;4.40;4.00;;;;;;;;;;5088251;28;20458;-73
2021/07/31 08:55:51;;;;;;;5.30;4.10;;;;;;;;;;5073565;28;20423;-72
2021/07/31 08:58:17;;;;;;;4.37;3.47;;;;;;;;;;5073333;28;20414;-74
2021/07/31 09:00:43;;;;;;;5.13;4.57;;;;;;;;;;5073904;28;20891;-73
2021/07/31 09:03:15;;;;;;;4.40;4.00;;;;;;;;;;5073377;28;20478;-74
2021/07/31 09:05:41;;;;;;;4.03;3.60;;;;;;;;;;5072482;28;20430;-71
2021/07/31 09:08:08;;;;;;;5.60;3.77;;;;;;;;;;5073380;28;20505;-72
2021/07/31 09:10:35;;;;;;;4.70;3.70;;;;;;;;;;5073663;28;20414;-70
2021/07/31 09:13:03;;;;;;;4.23;3.77;;;;;;;;;;5073826;28;20934;-70
2021/07/31 09:15:29;;;;;;;5.00;3.77;;;;;;;;;;5073522;28;20417;-71
2021/07/31 09:17:55;;;;;;;4.50;4.03;;;;;;;;;;5072923;28;20903;-71
2021/07/31 09:20:21;;;;;;;4.23;3.80;;;;;;;;;;5073366;28;20483;-73
2021/07/31 09:22:52;;;;;;;4.20;3.53;;;;;;;;;;5072135;28;20442;-73
2021/07/31 09:25:18;;;;;;;5.90;3.47;;;;;;;;;;5073236;28;20422;-71
2021/07/31 09:27:44;;;;;;;4.10;3.23;;;;;;;;;;5073067;28;20826;-73
2021/07/31 09:30:10;;;;;;;4.97;4.20;;;;;;;;;;5073156;28;20506;-74
2021/07/31 09:32:37;;;;;;;4.40;3.40;;;;;;;;;;5073295;28;20440;-72
2021/07/31 09:35:05;;;;;;;3.53;3.23;;;;;;;;;;5073289;28;20415;-73
2021/07/31 09:37:31;;;;;;;4.73;4.33;;;;;;;;;;5072946;28;20422;-69
2021/07/31 09:40:02;;;;;;;3.97;3.40;;;;;;;;;;5073105;28;20434;-73
2021/07/31 09:42:29;;;;;;;4.17;3.77;;;;;;;;;;5073242;28;20445;-74
2021/07/31 09:44:56;;;;;;;4.90;3.50;;;;;;;;;;5073186;28;20535;-69
2021/07/31 09:47:22;;;;;;;6.13;3.47;;;;;;;;;;5072994;28;20782;-74
2021/07/31 09:49:50;;;;;;;4.20;3.50;;;;;;;;;;5073034;28;20819;-72
2021/07/31 09:52:17;;;;;;;4.53;3.57;;;;;;;;;;5073196;28;20837;-73
2021/07/31 09:54:43;;;;;;;4.70;3.90;;;;;;;;;;5072802;28;20447;-71
2021/07/31 09:57:12;;;;;;;4.83;3.57;;;;;;;;;;5072358;28;20425;-71
2021/07/31 09:59:43;;;;;;;3.50;3.20;;;;;;;;;;5073188;28;20433;-72
2021/07/31 10:02:13;;;;;;;4.57;4.13;;;;;;;;;;5072844;28;20452;-72
2021/07/31 10:04:39;;;;;;;4.57;4.03;;;;;;;;;;5072997;28;20483;-74
2021/07/31 10:07:06;;;;;;;4.53;4.00;;;;;;;;;;5072666;28;20442;-71
2021/07/31 10:09:32;;;;;;;5.20;4.00;;;;;;;;;;5073430;28;20547;-72
2021/07/31 10:11:58;;;;;;;6.30;4.37;;;;;;;;;;5072988;28;20896;-71
2021/07/31 10:14:25;;;;;;;5.20;3.87;;;;;;;;;;5092063;28;20509;-72
2021/07/31 10:16:51;;;;;;;4.57;3.70;;;;;;;;;;5096542;28;21373;-71
2021/07/31 10:19:18;;;;;;;6.87;4.03;;;;;;;;;;5097474;28;20453;-73
2021/07/31 10:21:52;;;;;;;3.73;3.30;;;;;;;;;;5097235;28;20413;-72
2021/07/31 10:24:18;;;;;;;4.43;3.60;;;;;;;;;;5095949;28;20436;-71
2021/07/31 10:27:04;;;;;;;6.97;3.50;;;;;;;;;;5096628;28;20420;-71
2021/07/31 10:29:33;;;;;;;3.70;3.40;;;;;;;;;;5083917;28;20458;-70
2021/07/31 10:32:17;;;;;;;6.10;3.93;;;;;;;;;;5076473;28;20472;-72
2021/07/31 10:34:43;;;;;;;3.57;3.27;;;;;;;;;;5076846;28;20421;-74
2021/07/31 10:37:29;;;;;;;3.87;3.57;;;;;;;;;;5076006;28;20464;-71
2021/07/31 10:39:55;;;;;;;5.70;3.67;;;;;;;;;;5076658;28;20756;-71
2021/07/31 10:42:21;;;;;;;5.57;3.43;;;;;;;;;;5076370;28;20453;-71
2021/07/31 10:45:11;;;;;;;4.23;3.60;;;;;;;;;;5076179;28;20815;-73
2021/07/31 10:47:37;;;;;;;3.93;3.53;;;;;;;;;;5070285;28;20459;-70
2021/07/31 10:50:26;;;;;;;5.17;3.23;;;;;;;;;;5076269;28;20457;-70
2021/07/31 10:52:52;;;;;;;5.57;4.40;;;;;;;;;;5076148;28;20462;-69
2021/07/31 10:55:19;;;;;;;5.23;4.40;;;;;;;;;;5076343;28;20468;-72
2021/07/31 10:57:54;;;;;;;3.97;3.67;;;;;;;;;;5075658;28;20421;-70
2021/07/31 11:00:27;;;;;;;5.93;3.93;;;;;;;;;;5074845;28;20410;-70
2021/07/31 11:02:54;;;;;;;3.90;3.60;;;;;;;;;;5075822;28;20440;-72
2021/07/31 11:05:20;;;;;;;5.43;3.20;;;;;;;;;;5075658;28;20426;-70
2021/07/31 11:08:00;;;;;;;4.90;3.80;;;;;;;;;;5075665;28;20796;-71
2021/07/31 11:10:44;;;;;;;4.23;3.93;;;;;;;;;;5076093;28;20492;-73
2021/07/31 11:13:13;;;;;;;3.40;3.10;;;;;;;;;;5083732;28;20430;-70
2021/07/31 11:16:00;;;;;;;4.40;4.00;;;;;;;;;;5096307;28;20474;-71
2021/07/31 11:18:27;;;;;;;3.17;2.87;;;;;;;;;;5095995;28;20490;-71
2021/07/31 11:20:53;;;;;;;6.47;3.03;;;;;;;;;;5096140;28;20410;-71
2021/07/31 11:23:20;;;;;;;3.10;2.60;;;;;;;;;;5095807;28;20532;-73
2021/07/31 11:25:46;;;;;;;5.87;2.60;;;;;;;;;;5095553;28;20411;-71
2021/07/31 11:28:12;;;;;;;3.43;2.87;;;;;;;;;;5093074;28;20448;-74
2021/07/31 11:30:40;;;;;;;2.70;2.20;;;;;;;;;;5075697;28;20456;-73
2021/07/31 11:33:16;;;;;;;4.73;2.40;;;;;;;;;;5075691;28;20505;-71
2021/07/31 11:35:43;;;;;;;3.93;2.50;;;;;;;;;;5076033;28;20403;-72
2021/07/31 11:38:27;;;;;;;4.10;2.50;;;;;;;;;;5074805;28;20403;-73
2021/07/31 11:41:04;;;;;;;3.30;2.10;;;;;;;;;;5075550;28;20426;-72
2021/07/31 11:43:41;;;;;;;2.90;2.40;;;;;;;;;;5075035;28;20453;-71
2021/07/31 11:46:07;;;;;;;4.33;2.33;;;;;;;;;;5075529;28;20449;-73
2021/07/31 11:48:33;;;;;;;3.07;2.20;;;;;;;;;;5074862;28;20500;-74
2021/07/31 11:51:06;;;;;;;4.27;2.83;;;;;;;;;;5075654;28;20414;-71
2021/07/31 11:53:33;;;;;;;3.53;2.93;;;;;;;;;;5082606;28;20435;-72
2021/07/31 11:56:19;;;;;;;3.30;2.60;;;;;;;;;;5082759;28;20414;-69
2021/07/31 11:58:45;;;;;;;3.00;2.60;;;;;;;;;;5074655;28;20814;-73
2021/07/31 12:01:12;;;;;;;2.87;2.23;;;;;;;;;;5074917;28;20422;-69
2021/07/31 12:03:44;;;;;;;3.70;2.20;;;;;;;;;;5074535;28;20434;-72
2021/07/31 12:06:29;;;;;;;3.60;2.07;;;;;;;;;;5074991;28;20425;-73
2021/07/31 12:09:00;;;;;;;3.47;2.37;;;;;;;;;;5074667;28;20489;-70
2021/07/31 12:11:32;;;;;;;3.07;2.20;;;;;;;;;;5075093;28;20418;-72
2021/07/31 12:13:58;;;;;;;4.00;2.10;;;;;;;;;;5089489;28;20433;-73
2021/07/31 12:16:28;;;;;;;4.30;2.03;;;;;;;;;;5095176;28;20414;-72
2021/07/31 12:18:54;;;;;;;2.90;2.10;;;;;;;;;;5094467;28;20894;-73
2021/07/31 12:21:25;;;;;;;2.50;2.27;;;;;;;;;;5094899;28;20417;-73
2021/07/31 12:23:51;;;;;;;2.80;2.47;;;;;;;;;;5094763;28;20430;-70
2021/07/31 12:26:33;;;;;;;2.80;2.10;;;;;;;;;;5094761;28;20413;-71
2021/07/31 12:28:59;;;;;;;2.60;1.90;;;;;;;;;;5085916;28;20861;-75
2021/07/31 12:31:31;;;;;;;2.40;2.10;;;;;;;;;;5074543;28;20445;-75
2021/07/31 12:33:58;;;;;;;5.20;2.20;;;;;;;;;;5074195;28;20431;-73
2021/07/31 12:36:24;;;;;;;3.03;2.33;;;;;;;;;;5074266;28;20414;-73
2021/07/31 12:38:52;;;;;;;4.00;2.67;;;;;;;;;;5072996;28;20447;-74
2021/07/31 12:41:22;;;;;;;3.33;2.20;;;;;;;;;;5074119;28;20907;-73
2021/07/31 12:43:48;;;;;;;2.87;2.57;;;;;;;;;;5074284;28;20438;-71
2021/07/31 12:46:14;;;;;;;3.23;2.33;;;;;;;;;;5074079;28;20467;-73
2021/07/31 12:48:40;;;;;;;3.40;2.20;;;;;;;;;;5073845;28;20458;-72
2021/07/31 12:51:08;;;;;;;2.50;1.80;;;;;;;;;;5073975;28;20806;-71
2021/07/31 12:53:34;;;;;;;4.07;2.53;;;;;;;;;;5080837;28;20494;-75
2021/07/31 12:56:00;;;;;;;2.90;2.07;;;;;;;;;;5080855;28;20417;-70
2021/07/31 12:58:26;;;;;;;6.00;2.10;;;;;;;;;;5073467;28;20421;-73
2021/07/31 13:00:53;;;;;;;3.90;2.30;;;;;;;;;;5073842;28;20429;-71
2021/07/31 13:03:20;;;;;;;3.63;2.40;;;;;;;;;;5073835;28;20433;-72
2021/07/31 13:05:46;;;;;;;2.50;1.90;;;;;;;;;;5074135;28;20771;-73
2021/07/31 13:08:14;;;;;;;3.27;1.90;;;;;;;;;;5071970;28;20470;-71
2021/07/31 13:10:41;;;;;;;3.60;2.30;;;;;;;;;;5073820;28;20411;-73
2021/07/31 13:13:07;;;;;;;4.93;2.20;;;;;;;;;;5081976;28;20809;-73
2021/07/31 13:15:37;;;;;;;4.40;2.20;;;;;;;;;;5094108;28;20513;-73
2021/07/31 13:18:07;;;;;;;2.63;1.90;;;;;;;;;;5093437;28;20753;-71
2021/07/31 13:20:33;;;;;;;4.40;2.10;;;;;;;;;;5094172;28;20413;-71
2021/07/31 13:23:00;;;;;;;4.03;1.97;;;;;;;;;;5093630;28;20487;-72
2021/07/31 13:25:26;;;;;;;3.53;2.10;;;;;;;;;;5093744;28;20417;-71
2021/07/31 13:27:52;;;;;;;3.17;2.20;;;;;;;;;;5093196;28;20962;-71
2021/07/31 13:30:18;;;;;;;3.07;2.00;;;;;;;;;;5073843;28;20469;-70
2021/07/31 13:32:44;;;;;;;3.10;2.17;;;;;;;;;;5073183;28;20939;-73
2021/07/31 13:35:10;;;;;;;3.70;2.17;;;;;;;;;;5073244;28;20476;-73
2021/07/31 13:37:41;;;;;;;3.27;2.00;;;;;;;;;;5072996;28;20861;-74
2021/07/31 13:40:19;;;;;;;3.97;2.10;;;;;;;;;;5073317;28;20500;-70
2021/07/31 13:42:46;;;;;;;2.70;1.90;;;;;;;;;;5073349;28;20436;-71
2021/07/31 13:45:13;;;;;;;4.50;2.13;;;;;;;;;;5073265;28;20413;-69
2021/07/31 13:47:39;;;;;;;3.10;1.90;;;;;;;;;;5072904;28;20418;-72
2021/07/31 13:50:06;;;;;;;2.33;1.90;;;;;;;;;;5072905;28;20468;-72
2021/07/31 13:52:32;;;;;;;2.80;2.17;;;;;;;;;;5073019;28;20456;-74
2021/07/31 13:54:58;;;;;;;3.80;2.20;;;;;;;;;;5073011;28;20903;-71
2021/07/31 13:57:24;;;;;;;3.90;2.53;;;;;;;;;;5072647;28;20421;-70
2021/07/31 13:59:50;;;;;;;3.37;2.50;;;;;;;;;;5072779;28;20411;-72
2021/07/31 14:02:16;;;;;;;6.20;2.37;;;;;;;;;;5073012;28;20410;-72
2021/07/31 14:04:42;;;;;;;2.80;2.37;;;;;;;;;;5072538;28;20434;-69
2021/07/31 14:07:08;;;;;;;4.83;2.57;;;;;;;;;;5072664;28;20418;-73
2021/07/31 14:09:34;;;;;;;3.40;2.50;;;;;;;;;;5072764;28;20947;-70
2021/07/31 14:12:00;;;;;;;3.00;2.40;;;;;;;;;;5073487;28;20452;-70
2021/07/31 14:14:26;;;;;;;3.93;3.00;;;;;;;;;;5091765;28;20975;-71
2021/07/31 14:16:52;;;;;;;3.20;2.80;;;;;;;;;;5092678;28;20449;-73
2021/07/31 14:19:18;;;;;;;3.70;2.60;;;;;;;;;;5092884;28;20464;-72
2021/07/31 14:21:44;;;;;;;6.77;2.63;;;;;;;;;;5093047;28;20433;-72
2021/07/31 14:24:10;;;;;;;3.10;2.80;;;;;;;;;;5092897;28;20448;-72
2021/07/31 14:26:36;;;;;;;3.33;3.03;;;;;;;;;;5092771;28;20413;-70
2021/07/31 14:29:02;;;;;;;3.33;2.63;;;;;;;;;;5083730;28;20461;-71
2021/07/31 14:31:29;;;;;;;3.00;2.50;;;;;;;;;;5072925;28;20411;-71
2021/07/31 14:33:55;;;;;;;3.23;2.57;;;;;;;;;;5072793;28;20452;-74
2021/07/31 14:36:21;;;;;;;3.17;2.70;;;;;;;;;;5073121;28;20417;-71
2021/07/31 14:38:48;;;;;;;3.50;3.10;;;;;;;;;;5071967;28;20413;-72
2021/07/31 14:41:14;;;;;;;3.13;2.80;;;;;;;;;;5072910;28;20445;-72
2021/07/31 14:43:40;;;;;;;3.60;2.40;;;;;;;;;;5072497;28;20469;-73